Bruceton Mills, West Virginia
Current Conditions -  °F | °C
As of 5:53 PM on Saturday 22 Nov 2014 (Local Time) from KMGW Reporting Station
Overcast Overcast  
Wind Chill: 10°   Ceiling: 7000
Heat Index: 10°   Visibility: 10mi
Dew Point: -3°   Wind: 0mph
Humidity: 39%   Direction: NA
Pressure: 30.17"   Gusts: NA
Location:  39.66°N, 79.64°W
Report Text: KMGW 222253Z 00000KT 10SM BKN070 OVC100 10/M03 A3017 RMK AO2 SLP228 T01001033
Loading
Personal Weather Stations






























Interactive Weather Map New forecast layout! Learn more

10-Day Weather Forecast

Advertisements
Track Severe Weather on mobile